Rogers, Arkansas
Current Conditions -  °F | °C
As of 12:59 PM on Thursday 23 Oct 2014 (Local Time) from KROG Reporting Station
Light Rain Light Rain  
Wind Chill: 58°   Ceiling: 2900
Heat Index: 58°   Visibility: 10mi
Dew Point: 53°   Wind: 7mph
Humidity: 84%   Direction: 240°WSW
Pressure: 30.2"   Gusts: NA
Location:  36.33°N, 94.12°W
Report Text: KROG 231759Z 24006KT 10SM -RA BKN029 BKN038 OVC065 14/12 A3020 RMK AO2 RAB11 SLP222 P0000 60006 T01440117 10144 20122 56003
Loading
Personal Weather Stations






























Interactive Weather Map
Tropical Storm Tracking
New forecast layout! Learn more

10-Day Weather Forecast

Advertisements
Track Severe Weather on mobile